Time;durP1;ratioP1;P1;durP2;ratioP2;P2;SDS_P1;SDS_P2;PMS_P1;PMS_P2;Temp;Humidity;BMP_temperature;BMP_pressure;BME280_temperature;BME280_humidity;BME280_pressure;Samples;Min_cycle;Max_cycle;Signal;HPM_P1;HPM_P2
2021/01/18 00:00:45;;;;;;;34.10;15.90;;;0.90;99.90;;;;;;4960411;28;20178;-84
2021/01/18 00:03:11;;;;;;;30.80;14.07;;;0.90;99.90;;;;;;4959520;28;20186;-84
2021/01/18 00:05:37;;;;;;;31.80;15.57;;;0.90;99.90;;;;;;4977440;28;20252;-83
2021/01/18 00:08:02;;;;;;;31.70;14.53;;;0.90;99.90;;;;;;4959744;28;20182;-83
2021/01/18 00:10:28;;;;;;;29.03;14.47;;;1.00;99.90;;;;;;4960031;28;20202;-84
2021/01/18 00:12:55;;;;;;;32.17;14.57;;;1.00;99.90;;;;;;4959844;28;20182;-84
2021/01/18 00:15:22;;;;;;;36.47;15.73;;;1.00;99.90;;;;;;4959517;28;20183;-82
2021/01/18 00:17:48;;;;;;;33.47;14.60;;;0.90;99.90;;;;;;4959529;28;20194;-80
2021/01/18 00:20:16;;;;;;;36.53;15.17;;;0.90;99.90;;;;;;4958972;28;20221;-85
2021/01/18 00:22:44;;;;;;;28.53;14.20;;;0.90;99.90;;;;;;4959482;28;20263;-85
2021/01/18 00:25:12;;;;;;;33.47;15.33;;;0.90;99.90;;;;;;4959720;28;20233;-82
2021/01/18 00:27:39;;;;;;;33.90;15.67;;;0.90;99.90;;;;;;4976465;28;20261;-83
2021/01/18 00:30:11;;;;;;;34.30;16.07;;;0.90;99.90;;;;;;4959637;28;20204;-83
2021/01/18 00:32:38;;;;;;;35.37;16.20;;;0.90;99.90;;;;;;4959226;28;20250;-85
2021/01/18 00:35:05;;;;;;;34.30;15.03;;;0.90;99.90;;;;;;4959483;28;20182;-84
2021/01/18 00:37:30;;;;;;;35.20;16.23;;;0.90;99.90;;;;;;4959102;28;20592;-85
2021/01/18 00:39:56;;;;;;;39.83;16.93;;;0.90;99.90;;;;;;4976804;28;20277;-85
2021/01/18 00:42:22;;;;;;;31.63;15.30;;;0.80;99.90;;;;;;4959967;28;20641;-81
2021/01/18 00:44:47;;;;;;;32.30;16.10;;;0.90;99.90;;;;;;4977058;28;20174;-85
2021/01/18 00:47:14;;;;;;;34.20;16.17;;;0.90;99.90;;;;;;4959257;28;20573;-83
2021/01/18 00:49:40;;;;;;;40.80;17.77;;;0.90;99.90;;;;;;4976887;28;20260;-85
2021/01/18 00:52:05;;;;;;;39.43;17.03;;;0.90;99.90;;;;;;4959459;28;20641;-85
2021/01/18 00:54:31;;;;;;;37.10;17.73;;;0.90;99.90;;;;;;4959641;28;20185;-83
2021/01/18 00:56:56;;;;;;;39.17;17.83;;;0.90;99.90;;;;;;4958800;28;20232;-86
2021/01/18 00:59:22;;;;;;;43.57;17.87;;;0.90;99.90;;;;;;4958659;28;20197;-81
2021/01/18 01:01:47;;;;;;;40.47;18.00;;;0.90;99.90;;;;;;4959136;28;20587;-84
2021/01/18 01:04:13;;;;;;;36.47;16.30;;;0.80;99.90;;;;;;4959165;28;20214;-84
2021/01/18 01:06:38;;;;;;;40.20;16.67;;;0.80;99.90;;;;;;4958797;28;20288;-82
2021/01/18 01:09:04;;;;;;;36.97;16.07;;;0.80;99.90;;;;;;4958497;28;20226;-85
2021/01/18 01:11:30;;;;;;;34.13;16.13;;;0.80;99.90;;;;;;4958981;28;20174;-85
2021/01/18 01:13:56;;;;;;;39.10;16.93;;;0.90;99.90;;;;;;4959143;28;20175;-85
2021/01/18 01:16:22;;;;;;;40.03;16.20;;;0.90;99.90;;;;;;4959677;28;20201;-85
2021/01/18 01:18:47;;;;;;;40.77;17.43;;;0.90;99.90;;;;;;4958873;28;20210;-83
2021/01/18 01:21:13;;;;;;;38.27;17.63;;;0.90;99.90;;;;;;4959862;28;20177;-84
2021/01/18 01:23:38;;;;;;;38.20;17.50;;;0.90;99.90;;;;;;4959736;28;20728;-85
2021/01/18 01:26:04;;;;;;;41.10;18.50;;;1.00;99.90;;;;;;4958823;28;20201;-85
2021/01/18 01:28:29;;;;;;;40.83;18.10;;;1.00;99.90;;;;;;4976893;28;20217;-85
2021/01/18 01:30:55;;;;;;;39.47;17.73;;;1.00;99.90;;;;;;4959708;28;20519;-83
2021/01/18 01:33:20;;;;;;;62.17;28.60;;;0.90;99.90;;;;;;4959462;28;20652;-85
2021/01/18 01:35:46;;;;;;;46.13;20.30;;;1.00;99.90;;;;;;4959626;28;20178;-84
2021/01/18 01:38:11;;;;;;;42.57;18.80;;;0.90;99.90;;;;;;4959038;28;20217;-85
2021/01/18 01:40:37;;;;;;;41.50;17.20;;;0.90;99.90;;;;;;4959396;28;20189;-83
2021/01/18 01:43:04;;;;;;;41.17;18.77;;;0.90;99.90;;;;;;4959655;28;20209;-84
2021/01/18 01:45:30;;;;;;;38.93;17.53;;;1.00;99.90;;;;;;4959397;28;20317;-85
2021/01/18 01:47:56;;;;;;;35.10;17.07;;;1.00;99.90;;;;;;4958978;28;20195;-85
2021/01/18 01:50:21;;;;;;;42.57;18.83;;;0.90;99.90;;;;;;4959450;28;20202;-83
2021/01/18 01:52:49;;;;;;;38.03;17.47;;;0.90;99.90;;;;;;4976526;28;20175;-83
2021/01/18 01:55:25;;;;;;;41.87;19.27;;;0.90;99.90;;;;;;4958654;28;20527;-84
2021/01/18 01:57:52;;;;;;;40.77;18.13;;;0.90;99.90;;;;;;4955663;28;20181;-81
2021/01/18 02:00:18;;;;;;;39.30;19.33;;;1.00;99.90;;;;;;4956519;28;20202;-83
2021/01/18 02:02:44;;;;;;;44.13;18.73;;;0.90;99.90;;;;;;4974092;28;20179;-81
2021/01/18 02:05:14;;;;;;;43.17;20.03;;;0.90;99.90;;;;;;4956888;28;20184;-82
2021/01/18 02:07:40;;;;;;;42.93;19.30;;;0.90;99.90;;;;;;4973949;28;20238;-83
2021/01/18 02:10:07;;;;;;;47.77;19.17;;;0.90;99.90;;;;;;4974923;28;20218;-85
2021/01/18 02:12:32;;;;;;;46.00;18.90;;;0.90;99.90;;;;;;4963536;28;20209;-82
2021/01/18 02:15:27;;;;;;;43.00;18.87;;;0.90;99.90;;;;;;4963518;28;20641;-83
2021/01/18 02:18:02;;;;;;;46.33;19.73;;;0.80;99.90;;;;;;4980139;28;20174;-85
2021/01/18 02:21:02;;;;;;;49.43;18.97;;;0.90;99.90;;;;;;4980703;28;20586;-84
2021/01/18 02:24:05;;;;;;;50.97;20.33;;;0.90;99.90;;;;;;4962848;28;20555;-86
2021/01/18 02:26:55;;;;;;;48.30;21.30;;;0.70;99.90;;;;;;4962843;28;20206;-84
2021/01/18 02:29:51;;;;;;;42.10;18.80;;;0.80;99.90;;;;;;4963268;28;20209;-83
2021/01/18 02:32:40;;;;;;;58.30;20.93;;;0.80;99.90;;;;;;4963424;28;20625;-85
2021/01/18 02:35:27;;;;;;;48.93;20.13;;;0.70;99.90;;;;;;4963620;28;20553;-86
2021/01/18 02:38:07;;;;;;;51.43;20.10;;;0.70;99.90;;;;;;4963030;28;20237;-84
2021/01/18 02:40:41;;;;;;;50.80;20.07;;;0.80;99.90;;;;;;4980990;28;20521;-85
2021/01/18 02:43:12;;;;;;;47.87;20.67;;;0.80;99.90;;;;;;4962845;28;20616;-85
2021/01/18 02:45:39;;;;;;;54.03;21.23;;;0.90;99.90;;;;;;4962715;28;20206;-85
2021/01/18 02:48:06;;;;;;;51.87;19.77;;;0.90;99.90;;;;;;4962335;28;20178;-82
2021/01/18 02:50:32;;;;;;;56.90;22.40;;;0.80;99.90;;;;;;4962545;28;20206;-84
2021/01/18 02:52:59;;;;;;;54.80;21.10;;;0.80;99.90;;;;;;4962591;28;20182;-83
2021/01/18 02:55:24;;;;;;;51.27;20.17;;;0.90;99.90;;;;;;4962851;28;20217;-86
2021/01/18 02:57:52;;;;;;;48.13;20.17;;;0.80;99.90;;;;;;4961652;28;20178;-80
2021/01/18 03:00:23;;;;;;;48.63;19.70;;;0.90;99.90;;;;;;4979506;28;20194;-83
2021/01/18 03:03:22;;;;;;;53.10;21.67;;;0.90;99.90;;;;;;4979840;28;20637;-85
2021/01/18 03:06:15;;;;;;;48.33;18.43;;;0.90;99.90;;;;;;4962252;28;20208;-83
2021/01/18 03:08:46;;;;;;;46.50;19.47;;;0.90;99.90;;;;;;4961855;28;20693;-84
2021/01/18 03:11:17;;;;;;;56.20;22.13;;;1.00;99.90;;;;;;4980432;28;20210;-84
2021/01/18 03:13:56;;;;;;;59.63;21.00;;;0.90;99.90;;;;;;4963346;28;20641;-85
2021/01/18 03:16:28;;;;;;;57.37;20.73;;;1.00;99.90;;;;;;4962587;28;20186;-84
2021/01/18 03:18:58;;;;;;;66.90;23.57;;;1.00;99.90;;;;;;4979485;28;20217;-84
2021/01/18 03:21:24;;;;;;;47.40;18.80;;;1.00;99.90;;;;;;4979234;28;20648;-83
2021/01/18 03:23:50;;;;;;;46.37;18.73;;;0.90;99.90;;;;;;4962259;28;20189;-83
2021/01/18 03:26:15;;;;;;;43.47;18.37;;;1.00;99.90;;;;;;4962154;28;20198;-85
2021/01/18 03:28:41;;;;;;;41.53;17.93;;;1.00;99.90;;;;;;4979351;28;20206;-85
2021/01/18 03:33:42;;;;;;;52.70;19.73;;;1.00;99.90;;;;;;5016538;28;20188;-83
2021/01/18 03:36:08;;;;;;;57.20;20.20;;;1.00;99.90;;;;;;4998134;28;20216;-81
2021/01/18 03:38:33;;;;;;;43.67;17.73;;;1.00;99.90;;;;;;5001380;28;20220;-82
2021/01/18 03:40:59;;;;;;;42.93;15.93;;;1.00;99.90;;;;;;4996871;28;20177;-81
2021/01/18 03:43:24;;;;;;;44.20;17.93;;;1.00;99.90;;;;;;4998023;28;20202;-83
2021/01/18 03:45:50;;;;;;;68.17;19.00;;;1.00;99.90;;;;;;4994062;28;20232;-80
2021/01/18 03:48:16;;;;;;;40.90;18.23;;;1.10;99.90;;;;;;4994374;28;20173;-81
2021/01/18 03:50:42;;;;;;;38.47;17.43;;;1.10;99.90;;;;;;4994437;28;20182;-82
2021/01/18 03:53:09;;;;;;;46.20;18.67;;;1.00;99.90;;;;;;4994042;28;20619;-82
2021/01/18 03:55:35;;;;;;;43.27;17.10;;;1.10;99.90;;;;;;4993344;28;20177;-83
2021/01/18 03:58:01;;;;;;;40.57;17.57;;;1.10;99.90;;;;;;4993649;28;20245;-83
2021/01/18 04:00:28;;;;;;;38.33;17.47;;;1.10;99.90;;;;;;4993949;28;20244;-81
2021/01/18 04:02:54;;;;;;;40.47;16.90;;;1.10;99.90;;;;;;4996261;28;20205;-81
2021/01/18 04:05:21;;;;;;;51.60;16.27;;;1.10;99.90;;;;;;4996234;28;20231;-83
2021/01/18 04:07:48;;;;;;;44.97;19.13;;;1.10;99.90;;;;;;4993854;28;20174;-82
2021/01/18 04:10:16;;;;;;;79.23;20.67;;;1.10;99.90;;;;;;4992980;28;20201;-81
2021/01/18 04:12:44;;;;;;;66.70;18.80;;;1.10;99.90;;;;;;4990845;28;20201;-84
2021/01/18 04:15:12;;;;;;;90.17;21.60;;;1.00;99.90;;;;;;4988777;28;20173;-83
2021/01/18 04:17:51;;;;;;;54.67;18.40;;;0.90;99.90;;;;;;4992072;28;20189;-84
2021/01/18 04:20:17;;;;;;;48.57;17.60;;;0.90;99.90;;;;;;4994251;28;20216;-83
2021/01/18 04:22:45;;;;;;;52.37;17.80;;;0.90;99.90;;;;;;4996594;28;20201;-82
2021/01/18 04:25:13;;;;;;;44.07;16.13;;;1.00;99.90;;;;;;4997149;28;20186;-84
2021/01/18 04:27:38;;;;;;;43.37;17.40;;;1.00;99.90;;;;;;4998003;28;20189;-85
2021/01/18 04:30:07;;;;;;;78.23;20.67;;;1.10;99.90;;;;;;4999669;28;20177;-84
2021/01/18 04:32:32;;;;;;;46.80;16.87;;;1.00;99.90;;;;;;5000746;28;20205;-83
2021/01/18 04:34:58;;;;;;;74.37;19.53;;;1.00;99.90;;;;;;5000022;28;20173;-83
2021/01/18 04:37:23;;;;;;;44.73;15.77;;;1.00;99.90;;;;;;5000184;28;20173;-83
2021/01/18 04:39:49;;;;;;;62.27;16.27;;;1.00;99.90;;;;;;5000387;28;20181;-81
2021/01/18 04:42:15;;;;;;;34.37;14.70;;;1.10;99.90;;;;;;4998857;28;20213;-83
2021/01/18 04:44:40;;;;;;;37.40;15.00;;;1.10;99.90;;;;;;5000508;28;20173;-80
2021/01/18 04:47:10;;;;;;;43.07;14.47;;;1.10;99.90;;;;;;4998764;28;20209;-81
2021/01/18 04:49:37;;;;;;;33.90;14.07;;;1.10;99.90;;;;;;4998655;28;20221;-80
2021/01/18 04:52:11;;;;;;;43.77;15.23;;;1.10;99.90;;;;;;4998356;28;20182;-82
2021/01/18 04:54:43;;;;;;;33.40;13.80;;;1.20;99.90;;;;;;4997720;28;20212;-81
2021/01/18 04:57:19;;;;;;;31.17;14.07;;;1.20;99.90;;;;;;4999260;28;20189;-82
2021/01/18 04:59:47;;;;;;;49.50;15.90;;;1.20;99.90;;;;;;4999882;28;20158;-83
2021/01/18 05:02:21;;;;;;;43.67;15.07;;;1.20;99.90;;;;;;5000665;28;20193;-82
2021/01/18 05:04:49;;;;;;;47.40;15.20;;;1.20;99.90;;;;;;5001068;28;20169;-83
2021/01/18 05:07:36;;;;;;;69.97;17.67;;;1.10;99.90;;;;;;5001021;28;20228;-83
2021/01/18 05:10:10;;;;;;;56.30;15.40;;;1.10;99.90;;;;;;4996526;28;20248;-82
2021/01/18 05:12:37;;;;;;;35.83;14.13;;;1.10;99.90;;;;;;4996817;28;20224;-84
2021/01/18 05:15:07;;;;;;;34.50;14.43;;;1.10;99.90;;;;;;4996239;28;20173;-86
2021/01/18 05:17:47;;;;;;;30.57;13.13;;;1.10;99.90;;;;;;4997028;28;20170;-83
2021/01/18 05:20:14;;;;;;;31.80;13.97;;;1.20;99.90;;;;;;4999572;28;20163;-83
2021/01/18 05:22:43;;;;;;;29.77;12.73;;;1.30;99.90;;;;;;4999002;28;20272;-85
2021/01/18 05:25:10;;;;;;;39.37;14.07;;;1.30;99.90;;;;;;4999148;28;20245;-86
2021/01/18 05:28:04;;;;;;;43.53;14.50;;;1.20;99.90;;;;;;4997102;28;20217;-85
2021/01/18 05:30:34;;;;;;;45.00;13.20;;;1.20;99.90;;;;;;5001411;28;20169;-83
2021/01/18 05:33:07;;;;;;;49.33;13.70;;;1.30;99.90;;;;;;4997491;28;20211;-83
2021/01/18 05:35:35;;;;;;;45.00;13.83;;;1.30;99.90;;;;;;4998401;28;20166;-84
2021/01/18 05:38:10;;;;;;;86.27;18.27;;;1.20;99.90;;;;;;4999345;28;20249;-83
2021/01/18 05:40:50;;;;;;;100.43;20.77;;;1.10;99.90;;;;;;5001005;28;20175;-83
2021/01/18 05:43:18;;;;;;;60.43;16.87;;;1.10;99.90;;;;;;4997529;28;20292;-82
2021/01/18 05:45:45;;;;;;;70.53;16.60;;;1.00;99.90;;;;;;5000186;28;20197;-87
2021/01/18 05:48:13;;;;;;;31.43;12.27;;;1.10;99.90;;;;;;5004861;28;20165;-83
2021/01/18 05:50:40;;;;;;;28.20;11.33;;;1.20;99.90;;;;;;5004825;28;20271;-88
2021/01/18 05:53:24;;;;;;;27.03;11.73;;;1.20;99.90;;;;;;5000133;28;20202;-83
2021/01/18 05:55:51;;;;;;;30.20;12.57;;;1.20;99.90;;;;;;5000677;28;20200;-84
2021/01/18 05:58:31;;;;;;;29.00;12.37;;;1.20;99.90;;;;;;5018185;28;20166;-83
2021/01/18 06:00:58;;;;;;;29.10;11.73;;;1.20;99.90;;;;;;5000712;28;20157;-89
2021/01/18 06:03:31;;;;;;;45.83;14.47;;;1.30;99.90;;;;;;4992849;28;20187;-90
2021/01/18 06:05:58;;;;;;;29.60;12.67;;;1.20;99.90;;;;;;4998693;28;20235;-83
2021/01/18 06:08:24;;;;;;;34.00;12.80;;;1.30;99.90;;;;;;4993950;28;20185;-82
2021/01/18 06:10:52;;;;;;;28.57;12.10;;;1.20;99.90;;;;;;4993963;28;20273;-84
2021/01/18 06:13:26;;;;;;;30.90;11.47;;;1.30;99.90;;;;;;4988413;28;20221;-84
2021/01/18 06:16:10;;;;;;;26.17;11.73;;;1.30;99.90;;;;;;5010817;28;20212;-84
2021/01/18 06:18:38;;;;;;;28.50;11.33;;;1.40;99.90;;;;;;5002912;28;20216;-82
2021/01/18 06:21:05;;;;;;;40.70;12.73;;;1.30;99.90;;;;;;4992471;28;20202;-83
2021/01/18 06:23:31;;;;;;;40.10;11.60;;;1.30;99.90;;;;;;4988974;28;20186;-84
2021/01/18 06:25:58;;;;;;;39.53;13.53;;;1.40;99.90;;;;;;4984682;28;21220;-84
2021/01/18 06:28:29;;;;;;;27.53;11.23;;;1.40;99.90;;;;;;4989862;28;20217;-87
2021/01/18 06:31:04;;;;;;;23.43;10.93;;;1.40;99.90;;;;;;4983728;28;20190;-82
2021/01/18 06:33:50;;;;;;;25.20;11.57;;;1.50;99.90;;;;;;4987131;28;20212;-87
2021/01/18 06:36:23;;;;;;;24.77;9.87;;;1.50;99.90;;;;;;4994550;28;20178;-84
2021/01/18 06:38:58;;;;;;;24.83;10.53;;;1.50;99.90;;;;;;4989971;28;20210;-84
2021/01/18 06:41:32;;;;;;;24.10;10.77;;;1.50;99.90;;;;;;4995465;28;20249;-86
2021/01/18 06:43:58;;;;;;;27.80;11.20;;;1.60;99.90;;;;;;5000370;28;20208;-84
2021/01/18 06:46:29;;;;;;;28.97;11.47;;;1.50;99.90;;;;;;4989420;28;20271;-87
2021/01/18 06:48:55;;;;;;;30.60;11.43;;;1.50;99.90;;;;;;4997816;28;20186;-89
2021/01/18 06:51:23;;;;;;;22.87;10.97;;;1.40;99.90;;;;;;4996248;28;20201;-89
2021/01/18 06:53:54;;;;;;;24.77;10.83;;;1.50;99.90;;;;;;4998641;28;20169;-85
2021/01/18 06:59:44;;;;;;;22.00;10.30;;;1.50;99.90;;;;;;5348172;23;20231;-88
2021/01/18 07:02:22;;;;;;;20.77;9.67;;;1.50;99.90;;;;;;5010671;28;20190;-85
2021/01/18 07:07:29;;;;;;;24.93;10.90;;;1.50;99.90;;;;;;5151560;23;20213;-88
2021/01/18 07:12:31;;;;;;;24.87;8.77;;;1.40;99.90;;;;;;5561717;23;20256;-88
2021/01/18 07:27:59;;;;;;;17.57;7.23;;;1.50;99.90;;;;;;5121210;23;20198;-89
2021/01/18 12:18:00;;;;;;;7.83;2.87;;;3.80;99.90;;;;;;4994017;28;20698;-85
2021/01/18 12:20:27;;;;;;;7.57;3.30;;;3.90;99.90;;;;;;4975785;28;20177;-86
2021/01/18 12:22:56;;;;;;;7.80;2.90;;;3.90;99.90;;;;;;4980545;28;20205;-85
2021/01/18 12:25:24;;;;;;;7.80;2.67;;;4.00;99.90;;;;;;4976884;28;20178;-86
2021/01/18 12:27:51;;;;;;;8.57;3.37;;;4.00;99.90;;;;;;4975948;28;20291;-84
2021/01/18 12:30:17;;;;;;;10.80;4.70;;;4.00;99.90;;;;;;4976165;28;20264;-84
2021/01/18 12:32:43;;;;;;;10.13;3.60;;;4.00;99.90;;;;;;4982671;28;20689;-84
2021/01/18 12:35:09;;;;;;;8.03;3.27;;;4.30;99.90;;;;;;4982163;28;20182;-84
2021/01/18 12:37:35;;;;;;;9.37;3.00;;;4.50;99.90;;;;;;4978008;28;20190;-84
2021/01/18 12:40:00;;;;;;;10.07;3.37;;;5.00;99.90;;;;;;4983504;28;20184;-86
2021/01/18 12:42:26;;;;;;;8.93;2.73;;;5.50;99.90;;;;;;4977895;28;20235;-83
2021/01/18 12:44:52;;;;;;;11.10;3.63;;;5.70;99.90;;;;;;4980338;28;20276;-83
2021/01/18 12:47:26;;;;;;;11.83;4.40;;;5.90;99.90;;;;;;4978297;28;20210;-84
2021/01/18 12:49:51;;;;;;;8.03;2.97;;;6.00;99.90;;;;;;4977640;28;20181;-85
2021/01/18 12:52:17;;;;;;;7.90;3.10;;;6.00;99.90;;;;;;4983638;28;20283;-85
2021/01/18 12:54:46;;;;;;;9.10;2.87;;;5.70;99.90;;;;;;4975426;28;20199;-86
2021/01/18 12:57:12;;;;;;;7.87;3.13;;;5.60;99.90;;;;;;4981751;28;20182;-85
2021/01/18 12:59:43;;;;;;;7.27;2.97;;;5.40;99.90;;;;;;4977809;28;20192;-86
2021/01/18 13:02:11;;;;;;;7.57;2.67;;;5.20;99.90;;;;;;4973041;28;20648;-84
2021/01/18 13:04:38;;;;;;;9.93;3.17;;;5.10;99.90;;;;;;4991109;28;20194;-86
2021/01/18 13:07:04;;;;;;;10.13;3.90;;;5.00;99.90;;;;;;4972680;28;20251;-84
2021/01/18 13:09:29;;;;;;;7.27;2.60;;;4.90;99.90;;;;;;4973205;28;20276;-84
2021/01/18 13:11:55;;;;;;;10.27;3.30;;;4.80;99.90;;;;;;4975347;28;20713;-86
2021/01/18 13:14:22;;;;;;;8.27;2.50;;;4.80;99.90;;;;;;4975830;28;20182;-85
2021/01/18 13:16:50;;;;;;;6.90;1.90;;;4.70;99.90;;;;;;4974062;28;20226;-86
2021/01/18 13:19:16;;;;;;;8.13;2.20;;;4.70;99.90;;;;;;4974068;28;20192;-85
2021/01/18 13:21:42;;;;;;;8.00;3.10;;;4.70;99.90;;;;;;4974858;28;20212;-83
2021/01/18 13:24:29;;;;;;;13.83;4.77;;;4.70;99.90;;;;;;4970949;28;20188;-86
2021/01/18 13:26:55;;;;;;;12.90;3.80;;;4.70;99.90;;;;;;4968554;28;20208;-85
2021/01/18 13:29:24;;;;;;;11.30;3.30;;;4.70;99.90;;;;;;4973261;28;20175;-85
2021/01/18 13:31:50;;;;;;;13.93;5.33;;;4.70;99.90;;;;;;4974041;28;20288;-86
2021/01/18 13:34:15;;;;;;;11.63;3.90;;;4.80;99.90;;;;;;4990202;28;20338;-84
2021/01/18 13:36:41;;;;;;;8.97;2.30;;;4.80;99.90;;;;;;4972937;28;20181;-85
2021/01/18 13:39:08;;;;;;;10.60;3.07;;;4.80;99.90;;;;;;4976475;28;20191;-85
2021/01/18 13:41:34;;;;;;;11.43;3.30;;;4.80;99.90;;;;;;4971250;28;20205;-84
2021/01/18 13:43:59;;;;;;;8.80;2.13;;;4.80;99.90;;;;;;4963330;28;20282;-85
2021/01/18 13:46:26;;;;;;;12.70;3.40;;;4.80;99.90;;;;;;4970301;28;20356;-86
2021/01/18 13:48:54;;;;;;;6.17;2.10;;;4.90;99.90;;;;;;4981810;28;20177;-87
2021/01/18 13:51:24;;;;;;;6.70;2.10;;;4.90;99.90;;;;;;4987955;28;20195;-84
2021/01/18 13:53:51;;;;;;;9.13;1.80;;;4.90;99.90;;;;;;4974580;28;20189;-84
2021/01/18 13:56:21;;;;;;;9.67;1.47;;;4.90;99.90;;;;;;4971163;28;20183;-84
2021/01/18 13:58:47;;;;;;;5.93;1.33;;;4.90;99.90;;;;;;4968311;28;20207;-83
2021/01/18 14:01:26;;;;;;;8.40;1.67;;;5.00;99.90;;;;;;4974186;28;20285;-84
2021/01/18 14:03:53;;;;;;;10.33;2.50;;;4.90;99.90;;;;;;4975145;28;20191;-85
2021/01/18 14:06:27;;;;;;;10.40;2.73;;;5.00;99.90;;;;;;4976903;28;20206;-86
2021/01/18 14:09:04;;;;;;;6.47;2.20;;;4.90;99.90;;;;;;4977711;28;20545;-86
2021/01/18 14:11:35;;;;;;;9.53;1.70;;;5.00;99.90;;;;;;4984267;28;20260;-84
2021/01/18 14:14:01;;;;;;;11.13;1.90;;;5.00;99.90;;;;;;4978682;28;20210;-86
2021/01/18 14:16:27;;;;;;;11.17;2.10;;;5.00;99.90;;;;;;4977964;28;20210;-85
2021/01/18 14:18:53;;;;;;;8.53;2.37;;;5.00;99.90;;;;;;4978765;28;20187;-84
2021/01/18 14:21:19;;;;;;;8.20;2.37;;;5.00;99.90;;;;;;4978318;28;20281;-85
2021/01/18 14:23:44;;;;;;;13.10;2.20;;;5.00;99.90;;;;;;4969857;28;20304;-86
2021/01/18 14:26:23;;;;;;;8.80;2.17;;;5.00;99.90;;;;;;4973247;28;20208;-84
2021/01/18 14:28:55;;;;;;;9.23;2.40;;;5.00;99.90;;;;;;4970918;28;20185;-86
2021/01/18 14:31:25;;;;;;;10.80;2.10;;;5.00;99.90;;;;;;4972629;28;20272;-84
2021/01/18 14:33:51;;;;;;;5.60;1.40;;;5.00;99.90;;;;;;4974897;28;20190;-86
2021/01/18 14:36:19;;;;;;;10.03;2.17;;;5.00;99.90;;;;;;4977943;28;20255;-85
2021/01/18 14:38:45;;;;;;;15.50;6.07;;;5.00;99.90;;;;;;4970675;28;20260;-85
2021/01/18 14:41:22;;;;;;;13.03;5.30;;;5.00;99.90;;;;;;4973609;28;20739;-86
2021/01/18 14:43:49;;;;;;;10.60;4.77;;;5.00;99.90;;;;;;4971118;28;20189;-86
2021/01/18 14:46:16;;;;;;;11.40;5.10;;;5.00;99.90;;;;;;4976273;28;20213;-86
2021/01/18 14:48:45;;;;;;;17.20;8.87;;;5.00;99.90;;;;;;4973967;28;20256;-84
2021/01/18 14:51:21;;;;;;;21.13;11.50;;;5.00;99.90;;;;;;4975410;28;20188;-84
2021/01/18 14:53:47;;;;;;;12.27;3.87;;;5.00;99.90;;;;;;4974924;28;20190;-85
2021/01/18 14:56:17;;;;;;;8.97;4.23;;;5.00;99.90;;;;;;4979718;28;20285;-85
2021/01/18 14:58:48;;;;;;;8.77;2.97;;;5.00;99.90;;;;;;4973692;28;20212;-85
2021/01/18 15:01:21;;;;;;;11.83;3.37;;;5.00;99.90;;;;;;4973356;28;20190;-84
2021/01/18 15:03:51;;;;;;;10.13;3.13;;;5.00;99.90;;;;;;4982111;28;20289;-87
2021/01/18 15:06:27;;;;;;;15.43;8.97;;;5.00;99.90;;;;;;4979656;28;20215;-85
2021/01/18 15:08:53;;;;;;;13.93;6.60;;;5.00;99.90;;;;;;4976471;28;20657;-84
2021/01/18 15:11:21;;;;;;;11.77;5.30;;;5.00;99.90;;;;;;4975581;28;20664;-87
2021/01/18 15:13:47;;;;;;;13.27;4.50;;;4.90;99.90;;;;;;4989131;28;20198;-84
2021/01/18 15:16:12;;;;;;;15.67;6.73;;;5.00;99.90;;;;;;4995220;28;20195;-86
2021/01/18 15:18:38;;;;;;;13.57;5.97;;;5.00;99.90;;;;;;4978239;28;20190;-85
2021/01/18 15:21:04;;;;;;;12.73;5.30;;;5.00;99.90;;;;;;4975404;28;20181;-86
2021/01/18 15:23:30;;;;;;;18.07;9.73;;;5.00;99.90;;;;;;4977439;28;20244;-84
2021/01/18 15:25:55;;;;;;;15.63;6.23;;;5.10;99.90;;;;;;4975197;28;20549;-86
2021/01/18 15:28:22;;;;;;;17.17;6.67;;;5.00;99.90;;;;;;4973341;28;20239;-86
2021/01/18 15:30:49;;;;;;;18.97;6.37;;;5.00;99.90;;;;;;4976682;28;20189;-85
2021/01/18 17:45:11;;;;;;;10.37;4.00;;;5.10;99.90;;;;;;4988781;28;20630;-85
2021/01/18 17:47:45;;;;;;;14.67;3.60;;;5.10;99.90;;;;;;4994089;28;20208;-85
2021/01/18 17:50:11;;;;;;;15.83;2.93;;;5.10;99.90;;;;;;4987318;28;20276;-84
2021/01/18 17:52:37;;;;;;;15.03;2.93;;;5.20;99.90;;;;;;4979219;28;20268;-84
2021/01/18 17:55:04;;;;;;;13.60;2.97;;;5.10;99.90;;;;;;4969301;28;20214;-84
2021/01/18 17:57:29;;;;;;;18.97;3.60;;;5.10;99.90;;;;;;4967315;28;20188;-84
2021/01/18 17:59:54;;;;;;;15.73;3.37;;;5.10;99.90;;;;;;4965830;28;20559;-84
2021/01/18 18:02:20;;;;;;;16.13;5.27;;;5.10;99.90;;;;;;4959067;28;20211;-85
2021/01/18 18:04:50;;;;;;;9.43;2.57;;;5.10;99.90;;;;;;4982795;28;20188;-84
2021/01/18 18:07:17;;;;;;;13.53;3.13;;;5.10;99.90;;;;;;4975084;28;20210;-84
2021/01/18 18:09:43;;;;;;;17.20;3.40;;;5.00;99.90;;;;;;4948249;28;20191;-84
2021/01/18 18:12:10;;;;;;;20.47;3.53;;;5.00;99.90;;;;;;4967488;28;20230;-84
2021/01/18 18:14:36;;;;;;;13.60;2.87;;;5.00;99.90;;;;;;4966518;28;20792;-86
2021/01/18 18:17:01;;;;;;;14.20;4.13;;;5.00;99.90;;;;;;4963540;28;20285;-84
2021/01/18 18:19:27;;;;;;;14.17;3.67;;;5.00;99.90;;;;;;4965798;28;20707;-85
2021/01/18 18:21:53;;;;;;;10.10;3.53;;;4.90;99.90;;;;;;4972458;28;20205;-85
2021/01/18 18:24:18;;;;;;;13.47;3.60;;;4.90;99.90;;;;;;4959817;28;20278;-85
2021/01/18 18:26:44;;;;;;;13.87;3.40;;;4.90;99.90;;;;;;4977433;28;20209;-85
2021/01/18 18:29:10;;;;;;;14.07;3.20;;;5.00;99.90;;;;;;4956602;28;20174;-85
2021/01/18 18:31:41;;;;;;;17.37;3.57;;;4.90;99.90;;;;;;4960207;28;20641;-85
2021/01/18 18:34:12;;;;;;;11.60;3.10;;;4.90;99.90;;;;;;4960593;28;20189;-85
2021/01/18 18:36:38;;;;;;;15.67;3.33;;;4.90;99.90;;;;;;4958281;28;20197;-84
2021/01/18 18:39:08;;;;;;;12.37;2.30;;;4.90;99.90;;;;;;4979733;28;20188;-84
2021/01/18 18:42:06;;;;;;;11.87;2.90;;;4.90;99.90;;;;;;4962389;28;20667;-84
2021/01/18 18:44:32;;;;;;;11.27;3.47;;;5.00;99.90;;;;;;4964481;28;20190;-83
2021/01/18 18:46:58;;;;;;;10.40;2.17;;;5.00;99.90;;;;;;4979361;28;20218;-84
2021/01/18 18:49:25;;;;;;;10.83;2.20;;;4.90;99.90;;;;;;4976920;28;20269;-84
2021/01/18 18:51:53;;;;;;;8.23;2.03;;;4.80;99.90;;;;;;4968476;28;20844;-83
2021/01/18 18:54:20;;;;;;;7.93;2.13;;;4.80;99.90;;;;;;4951277;28;20270;-84
2021/01/18 18:56:48;;;;;;;10.30;3.40;;;4.80;99.90;;;;;;4966473;28;20182;-84
2021/01/18 18:59:14;;;;;;;9.93;2.33;;;4.80;99.90;;;;;;4956053;28;20710;-85
2021/01/18 19:01:40;;;;;;;10.03;2.30;;;4.80;99.90;;;;;;4970228;28;20583;-83
2021/01/18 19:04:07;;;;;;;10.77;2.20;;;4.80;99.90;;;;;;4963738;28;20192;-84
2021/01/18 19:06:33;;;;;;;10.47;2.43;;;4.80;99.90;;;;;;4971028;28;20221;-84
2021/01/18 19:09:18;;;;;;;7.23;2.20;;;4.70;99.90;;;;;;4958260;28;20174;-84
2021/01/18 19:11:43;;;;;;;8.93;2.37;;;4.70;99.90;;;;;;4962348;28;20174;-83
2021/01/18 19:14:09;;;;;;;10.53;3.03;;;4.60;99.90;;;;;;4974492;28;20203;-83
2021/01/18 19:16:35;;;;;;;12.13;4.57;;;4.50;99.90;;;;;;4960980;28;20239;-84
2021/01/18 19:19:00;;;;;;;14.17;3.40;;;4.40;99.90;;;;;;4959815;28;20210;-84
2021/01/18 19:21:26;;;;;;;11.03;3.33;;;4.40;99.90;;;;;;4954983;28;20188;-85
2021/01/18 19:23:52;;;;;;;8.73;2.93;;;4.40;99.90;;;;;;4965847;28;20280;-84
2021/01/18 19:26:20;;;;;;;14.10;2.80;;;4.40;99.90;;;;;;4962767;28;20184;-84
2021/01/18 19:28:46;;;;;;;9.27;2.87;;;4.40;99.90;;;;;;4958537;28;20232;-84
2021/01/18 19:31:22;;;;;;;9.10;2.27;;;4.40;99.90;;;;;;4974995;28;20669;-83
2021/01/18 19:33:49;;;;;;;7.30;3.17;;;4.40;99.90;;;;;;4972398;28;20206;-84
2021/01/18 19:36:25;;;;;;;9.80;2.53;;;4.40;99.90;;;;;;4952172;28;20178;-84
2021/01/18 19:38:51;;;;;;;9.57;2.10;;;4.40;99.90;;;;;;4979156;28;20660;-84
2021/01/18 19:41:32;;;;;;;12.70;2.13;;;4.30;99.90;;;;;;4975552;28;20186;-84
2021/01/18 19:44:01;;;;;;;7.60;1.93;;;4.40;99.90;;;;;;4973643;28;20237;-84
2021/01/18 19:46:29;;;;;;;6.33;1.87;;;4.30;99.90;;;;;;4957095;28;20206;-85
2021/01/18 19:48:55;;;;;;;8.77;1.77;;;4.30;99.90;;;;;;4970794;28;20188;-82
2021/01/18 19:51:22;;;;;;;5.93;1.50;;;4.20;99.90;;;;;;4982896;28;20187;-85
2021/01/18 19:53:48;;;;;;;7.17;1.77;;;4.20;99.90;;;;;;4955622;28;20203;-84
2021/01/18 19:56:14;;;;;;;6.97;1.40;;;4.20;99.90;;;;;;4982247;28;20299;-83
2021/01/18 19:58:40;;;;;;;15.33;2.17;;;4.10;99.90;;;;;;4952373;28;20251;-85
2021/01/18 20:01:05;;;;;;;12.17;4.63;;;4.20;99.90;;;;;;4956305;28;20318;-84
2021/01/18 20:03:31;;;;;;;8.50;3.33;;;4.20;99.90;;;;;;4965071;28;20243;-84
2021/01/18 20:05:56;;;;;;;13.17;5.20;;;4.10;99.90;;;;;;4949797;28;20187;-84
2021/01/18 20:08:22;;;;;;;14.97;7.53;;;4.10;99.90;;;;;;4949142;28;20377;-84
2021/01/18 20:10:47;;;;;;;15.30;6.70;;;4.10;99.90;;;;;;4963688;28;20265;-82
2021/01/18 20:13:13;;;;;;;9.10;4.77;;;4.10;99.90;;;;;;4949200;28;20604;-82
2021/01/18 20:15:39;;;;;;;10.37;4.30;;;4.00;99.90;;;;;;4965391;28;20187;-83